Time,TemperatureF,DewpointF,PressureIn,WindDirection,WindDirectionDegrees,WindSpeedMPH,WindSpeedGustMPH,Humidity,HourlyPrecipIn,Conditions,Clouds,dailyrainin,SolarRadiationWatts/m^2,SoftwareType,DateUTC
2013-01-31 00:11:00,70.6,67.0,29.98,South,182,0.0,3.0,88,0.00,,,0.00,0,weatherlink.com 1.10,2013-01-31 05:11:00,
2013-01-31 00:26:00,70.3,67.0,29.98,SW,214,0.0,2.0,89,0.00,,,0.00,0,weatherlink.com 1.10,2013-01-31 05:26:00,
2013-01-31 00:40:00,70.1,67.0,29.98,SSW,211,0.0,3.0,89,0.00,,,0.00,0,weatherlink.com 1.10,2013-01-31 05:40:00,
2013-01-31 00:55:00,70.1,67.0,29.98,SSW,192,0.0,3.0,89,0.00,,,0.00,0,weatherlink.com 1.10,2013-01-31 05:55:00,
2013-01-31 01:10:00,70.1,67.0,29.98,South,182,0.0,5.0,89,0.00,,,0.00,0,weatherlink.com 1.10,2013-01-31 06:10:00,
2013-01-31 01:26:00,70.1,67.0,29.98,SSW,212,0.0,3.0,89,0.00,,,0.00,0,weatherlink.com 1.10,2013-01-31 06:26:00,
2013-01-31 01:40:00,70.2,67.0,29.98,South,180,0.0,3.0,89,0.00,,,0.00,0,weatherlink.com 1.10,2013-01-31 06:40:00,
2013-01-31 01:55:00,70.1,67.0,29.97,South,190,1.0,4.0,89,0.00,,,0.00,0,weatherlink.com 1.10,2013-01-31 06:55:00,
2013-01-31 02:11:00,70.2,67.0,29.97,South,190,0.0,4.0,90,0.00,,,0.00,0,weatherlink.com 1.10,2013-01-31 07:11:00,
2013-01-31 02:25:00,70.0,67.0,29.96,SW,215,0.0,2.0,90,0.00,,,0.00,0,weatherlink.com 1.10,2013-01-31 07:25:00,
2013-01-31 02:40:00,70.1,67.0,29.96,SSE,153,0.0,5.0,90,0.00,,,0.00,0,weatherlink.com 1.10,2013-01-31 07:40:00,
2013-01-31 02:55:00,70.1,67.0,29.95,SSW,198,1.0,3.0,90,0.00,,,0.00,0,weatherlink.com 1.10,2013-01-31 07:55:00,
2013-01-31 03:10:00,70.1,67.0,29.94,SSW,202,0.0,5.0,91,0.00,,,0.00,0,weatherlink.com 1.10,2013-01-31 08:10:00,
2013-01-31 03:25:00,70.2,68.0,29.95,South,185,2.0,5.0,91,0.00,,,0.00,0,weatherlink.com 1.10,2013-01-31 08:25:00,
2013-01-31 03:40:00,70.2,68.0,29.96,SSW,209,2.0,4.0,91,0.00,,,0.00,0,weatherlink.com 1.10,2013-01-31 08:40:00,
2013-01-31 03:56:00,70.2,68.0,29.95,South,186,0.0,2.0,91,0.00,,,0.00,0,weatherlink.com 1.10,2013-01-31 08:56:00,
2013-01-31 04:11:00,70.2,68.0,29.95,South,183,0.0,5.0,91,0.00,,,0.00,0,weatherlink.com 1.10,2013-01-31 09:11:00,
2013-01-31 04:26:00,70.2,68.0,29.94,SE,137,1.0,4.0,91,0.00,,,0.00,0,weatherlink.com 1.10,2013-01-31 09:26:00,
2013-01-31 04:41:00,70.3,68.0,29.94,WSW,242,0.0,3.0,92,0.00,,,0.00,0,weatherlink.com 1.10,2013-01-31 09:41:00,
2013-01-31 04:56:00,70.2,68.0,29.95,South,171,0.0,5.0,92,0.00,,,0.00,0,weatherlink.com 1.10,2013-01-31 09:56:00,
2013-01-31 05:11:00,70.2,68.0,29.95,SSW,206,2.0,4.0,92,0.00,,,0.00,0,weatherlink.com 1.10,2013-01-31 10:11:00,
2013-01-31 05:26:00,70.3,68.0,29.95,SSW,193,2.0,5.0,92,0.00,,,0.00,0,weatherlink.com 1.10,2013-01-31 10:26:00,
2013-01-31 05:41:00,70.3,68.0,29.96,SSW,196,1.0,4.0,92,0.00,,,0.00,0,weatherlink.com 1.10,2013-01-31 10:41:00,
2013-01-31 05:56:00,70.3,68.0,29.95,South,187,0.0,3.0,92,0.00,,,0.00,0,weatherlink.com 1.10,2013-01-31 10:56:00,
2013-01-31 06:11:00,70.3,68.0,29.96,SSW,204,1.0,5.0,93,0.00,,,0.00,0,weatherlink.com 1.10,2013-01-31 11:11:00,
2013-01-31 06:26:00,70.3,68.0,29.96,SSW,207,3.0,5.0,93,0.00,,,0.00,0,weatherlink.com 1.10,2013-01-31 11:26:00,
2013-01-31 06:41:00,70.5,68.0,29.97,South,188,0.0,5.0,93,0.00,,,0.00,0,weatherlink.com 1.10,2013-01-31 11:41:00,
2013-01-31 06:56:00,70.6,69.0,29.97,South,190,0.0,5.0,93,0.00,,,0.00,0,weatherlink.com 1.10,2013-01-31 11:56:00,
2013-01-31 07:11:00,70.7,69.0,29.98,SW,217,1.0,4.0,93,0.00,,,0.00,16,weatherlink.com 1.10,2013-01-31 12:11:00,
2013-01-31 07:26:00,71.0,69.0,29.98,South,188,1.0,6.0,93,0.00,,,0.00,26,weatherlink.com 1.10,2013-01-31 12:26:00,
2013-01-31 07:41:00,71.2,69.0,29.99,SW,216,2.0,6.0,93,0.00,,,0.00,51,weatherlink.com 1.10,2013-01-31 12:41:00,
2013-01-31 07:56:00,72.1,70.0,30.02,North,5,2.0,5.0,93,0.00,,,0.00,5,weatherlink.com 1.10,2013-01-31 12:56:00,
2013-01-31 08:11:00,67.2,64.0,30.04,WNW,284,4.0,5.0,90,0.00,,,0.00,18,weatherlink.com 1.10,2013-01-31 13:11:00,
2013-01-31 08:26:00,66.2,64.0,30.05,WNW,292,0.0,4.0,91,0.00,,,0.00,18,weatherlink.com 1.10,2013-01-31 13:26:00,
2013-01-31 08:42:00,64.3,61.0,30.07,NNE,18,4.0,7.0,90,0.00,,,0.00,28,weatherlink.com 1.10,2013-01-31 13:42:00,
2013-01-31 08:56:00,62.7,60.0,30.07,NNW,330,3.0,8.0,91,0.00,,,0.00,60,weatherlink.com 1.10,2013-01-31 13:56:00,
2013-01-31 09:11:00,62.7,60.0,30.08,North,355,3.0,12.0,91,0.00,,,0.00,118,weatherlink.com 1.10,2013-01-31 14:11:00,
2013-01-31 09:27:00,63.3,60.0,30.09,WNW,285,2.0,5.0,90,0.00,,,0.00,83,weatherlink.com 1.10,2013-01-31 14:27:00,
2013-01-31 09:41:00,63.5,61.0,30.09,NW,317,0.0,5.0,90,0.00,,,0.00,128,weatherlink.com 1.10,2013-01-31 14:41:00,
2013-01-31 09:56:00,64.1,61.0,30.10,WNW,296,2.0,10.0,88,0.01,,,0.01,269,weatherlink.com 1.10,2013-01-31 14:56:00,
2013-01-31 10:11:00,63.6,59.0,30.10,NNW,344,2.0,9.0,86,0.01,,,0.01,216,weatherlink.com 1.10,2013-01-31 15:11:00,
2013-01-31 10:26:00,64.0,60.0,30.10,NW,325,1.0,7.0,85,0.01,,,0.01,267,weatherlink.com 1.10,2013-01-31 15:26:00,
2013-01-31 10:44:00,63.6,59.0,30.11,NNW,340,3.0,6.0,84,0.01,,,0.01,276,weatherlink.com 1.10,2013-01-31 15:44:00,
2013-01-31 10:56:00,64.1,59.0,30.10,NW,321,1.0,8.0,83,0.00,,,0.01,221,weatherlink.com 1.10,2013-01-31 15:56:00,
2013-01-31 11:12:00,63.9,58.0,30.10,NNW,336,2.0,6.0,82,0.00,,,0.01,318,weatherlink.com 1.10,2013-01-31 16:12:00,
2013-01-31 11:27:00,64.4,59.0,30.11,NNW,329,0.0,9.0,82,0.00,,,0.01,367,weatherlink.com 1.10,2013-01-31 16:27:00,
2013-01-31 11:42:00,64.9,58.0,30.10,WNW,296,3.0,6.0,78,0.00,,,0.01,292,weatherlink.com 1.10,2013-01-31 16:42:00,
2013-01-31 11:57:00,65.2,58.0,30.09,NW,309,1.0,5.0,78,0.00,,,0.01,288,weatherlink.com 1.10,2013-01-31 16:57:00,
2013-01-31 12:12:00,65.9,59.0,30.09,NW,313,2.0,5.0,77,0.00,,,0.01,352,weatherlink.com 1.10,2013-01-31 17:12:00,
2013-01-31 12:27:00,66.6,58.0,30.09,NNW,327,3.0,5.0,74,0.00,,,0.01,399,weatherlink.com 1.10,2013-01-31 17:27:00,
2013-01-31 12:42:00,66.2,57.0,30.09,NW,313,1.0,7.0,72,0.00,,,0.01,306,weatherlink.com 1.10,2013-01-31 17:42:00,
2013-01-31 12:57:00,65.6,55.0,30.08,North,355,1.0,5.0,68,0.00,,,0.01,283,weatherlink.com 1.10,2013-01-31 17:57:00,
2013-01-31 13:12:00,65.7,54.0,30.07,West,277,1.0,5.0,65,0.00,,,0.01,258,weatherlink.com 1.10,2013-01-31 18:12:00,
2013-01-31 13:27:00,65.7,53.0,30.06,NNW,333,1.0,7.0,63,0.00,,,0.01,276,weatherlink.com 1.10,2013-01-31 18:27:00,
2013-01-31 13:42:00,65.7,53.0,30.05,NNW,335,2.0,5.0,63,0.00,,,0.01,225,weatherlink.com 1.10,2013-01-31 18:42:00,
2013-01-31 13:57:00,66.0,53.0,30.04,NE,34,1.0,6.0,63,0.00,,,0.01,186,weatherlink.com 1.10,2013-01-31 18:57:00,
2013-01-31 14:12:00,66.5,54.0,30.06,NNW,342,0.0,5.0,64,0.00,,,0.01,176,weatherlink.com 1.10,2013-01-31 19:12:00,
2013-01-31 14:27:00,65.7,55.0,30.07,NNW,335,4.0,6.0,68,0.00,,,0.01,178,weatherlink.com 1.10,2013-01-31 19:27:00,
2013-01-31 14:42:00,64.3,56.0,30.06,NNW,330,2.0,5.0,74,0.00,,,0.01,251,weatherlink.com 1.10,2013-01-31 19:42:00,
2013-01-31 14:57:00,65.1,56.0,30.07,West,271,2.0,6.0,72,0.00,,,0.01,193,weatherlink.com 1.10,2013-01-31 19:57:00,
2013-01-31 15:12:00,64.8,56.0,30.06,WNW,287,2.0,4.0,73,0.00,,,0.01,204,weatherlink.com 1.10,2013-01-31 20:12:00,
2013-01-31 15:27:00,65.0,56.0,30.06,NW,309,2.0,6.0,72,0.00,,,0.01,181,weatherlink.com 1.10,2013-01-31 20:27:00,
2013-01-31 15:42:00,65.8,56.0,30.06,NW,325,1.0,5.0,70,0.00,,,0.01,207,weatherlink.com 1.10,2013-01-31 20:42:00,
2013-01-31 15:57:00,66.2,54.0,30.07,North,360,2.0,6.0,66,0.00,,,0.01,169,weatherlink.com 1.10,2013-01-31 20:57:00,
2013-01-31 16:12:00,65.9,52.0,30.08,NW,306,2.0,6.0,61,0.00,,,0.01,139,weatherlink.com 1.10,2013-01-31 21:12:00,
2013-01-31 16:27:00,65.8,52.0,30.08,NW,311,1.0,5.0,61,0.00,,,0.01,91,weatherlink.com 1.10,2013-01-31 21:27:00,
2013-01-31 16:42:00,65.6,52.0,30.08,West,265,0.0,3.0,61,0.00,,,0.01,65,weatherlink.com 1.10,2013-01-31 21:42:00,
2013-01-31 16:57:00,65.5,52.0,30.08,NNW,341,0.0,2.0,62,0.00,,,0.01,100,weatherlink.com 1.10,2013-01-31 21:57:00,
2013-01-31 17:12:00,65.5,52.0,30.09,NW,306,0.0,3.0,63,0.00,,,0.01,81,weatherlink.com 1.10,2013-01-31 22:12:00,
2013-01-31 17:27:00,65.6,53.0,30.09,WNW,292,0.0,2.0,64,0.00,,,0.01,32,weatherlink.com 1.10,2013-01-31 22:27:00,
2013-01-31 17:42:00,65.0,52.0,30.09,NW,323,0.0,1.0,64,0.00,,,0.01,18,weatherlink.com 1.10,2013-01-31 22:42:00,
2013-01-31 17:57:00,64.6,53.0,30.09,NE,38,1.0,2.0,66,0.00,,,0.01,5,weatherlink.com 1.10,2013-01-31 22:57:00,
2013-01-31 18:27:00,64.3,53.0,30.10,East,81,0.0,0.0,68,0.00,,,0.01,0,weatherlink.com 1.10,2013-01-31 23:27:00,
2013-01-31 18:42:00,64.4,54.0,30.11,East,81,0.0,0.0,70,0.00,,,0.01,0,weatherlink.com 1.10,2013-01-31 23:42:00,
2013-01-31 18:57:00,64.2,55.0,30.11,East,81,0.0,0.0,71,0.00,,,0.01,0,weatherlink.com 1.10,2013-01-31 23:57:00,
2013-01-31 19:12:00,63.8,55.0,30.12,East,81,0.0,1.0,72,0.00,,,0.01,0,weatherlink.com 1.10,2013-02-01 00:12:00,
2013-01-31 19:27:00,63.3,54.0,30.12,East,81,0.0,0.0,72,0.00,,,0.01,0,weatherlink.com 1.10,2013-02-01 00:27:00,
2013-01-31 19:42:00,63.3,55.0,30.12,East,81,0.0,0.0,74,0.00,,,0.01,0,weatherlink.com 1.10,2013-02-01 00:42:00,
2013-01-31 19:57:00,63.1,55.0,30.13,East,81,0.0,1.0,74,0.00,,,0.01,0,weatherlink.com 1.10,2013-02-01 00:57:00,
2013-01-31 20:12:00,62.7,54.0,30.13,East,81,0.0,0.0,74,0.00,,,0.01,0,weatherlink.com 1.10,2013-02-01 01:12:00,
2013-01-31 20:27:00,62.4,54.0,30.13,East,81,0.0,1.0,74,0.00,,,0.01,0,weatherlink.com 1.10,2013-02-01 01:27:00,
2013-01-31 20:42:00,62.2,54.0,30.14,NNW,334,0.0,3.0,74,0.00,,,0.01,0,weatherlink.com 1.10,2013-02-01 01:42:00,
2013-01-31 20:58:00,62.0,52.0,30.15,West,277,3.0,4.0,69,0.00,,,0.01,0,weatherlink.com 1.10,2013-02-01 01:58:00,
2013-01-31 21:12:00,62.3,46.0,30.15,North,355,1.0,4.0,56,0.00,,,0.01,0,weatherlink.com 1.10,2013-02-01 02:12:00,
2013-01-31 21:28:00,61.9,45.0,30.16,NW,311,1.0,6.0,54,0.00,,,0.01,0,weatherlink.com 1.10,2013-02-01 02:28:00,
2013-01-31 21:42:00,61.5,44.0,30.17,NNW,330,3.0,5.0,53,0.00,,,0.01,0,weatherlink.com 1.10,2013-02-01 02:42:00,
2013-01-31 21:57:00,61.0,44.0,30.17,NNW,345,1.0,6.0,53,0.00,,,0.01,0,weatherlink.com 1.10,2013-02-01 02:57:00,
2013-01-31 22:13:00,60.5,42.0,30.17,NW,321,1.0,4.0,51,0.00,,,0.01,0,weatherlink.com 1.10,2013-02-01 03:13:00,
2013-01-31 22:27:00,60.0,42.0,30.18,NW,321,2.0,3.0,52,0.00,,,0.01,0,weatherlink.com 1.10,2013-02-01 03:27:00,
2013-01-31 22:43:00,59.5,42.0,30.18,NW,304,2.0,3.0,52,0.00,,,0.01,0,weatherlink.com 1.10,2013-02-01 03:43:00,
2013-01-31 22:58:00,59.1,41.0,30.18,North,355,1.0,5.0,51,0.00,,,0.01,0,weatherlink.com 1.10,2013-02-01 03:58:00,
2013-01-31 23:13:00,58.9,41.0,30.17,NNW,344,2.0,4.0,52,0.00,,,0.01,0,weatherlink.com 1.10,2013-02-01 04:13:00,
2013-01-31 23:28:00,58.5,41.0,30.17,West,280,1.0,4.0,53,0.00,,,0.01,0,weatherlink.com 1.10,2013-02-01 04:28:00,
2013-01-31 23:43:00,58.0,41.0,30.17,NNW,329,2.0,3.0,54,0.00,,,0.01,0,weatherlink.com 1.10,2013-02-01 04:43:00,
2013-01-31 23:58:00,57.7,41.0,30.16,WNW,300,1.0,4.0,55,0.00,,,0.01,0,weatherlink.com 1.10,2013-02-01 04:58:00,